createdAt,value
2019-04-04T00:00:36.812Z,3.70
2019-04-04T00:03:24.889Z,3.50
2019-04-04T00:06:12.669Z,3.50
2019-04-04T00:09:02.645Z,3.40
2019-04-04T00:11:51.133Z,3.40
2019-04-04T00:14:38.931Z,3.50
2019-04-04T00:17:27.021Z,3.60
2019-04-04T00:20:14.609Z,3.60
2019-04-04T00:23:02.181Z,3.50
2019-04-04T00:25:50.010Z,3.70
2019-04-04T00:28:37.989Z,3.70
2019-04-04T00:31:25.937Z,3.80
2019-04-04T00:34:13.799Z,3.90
2019-04-04T00:37:04.448Z,3.90
2019-04-04T00:39:51.085Z,3.90
2019-04-04T00:42:38.918Z,3.80
2019-04-04T00:45:28.629Z,3.70
2019-04-04T00:48:16.399Z,3.60
2019-04-04T00:51:04.174Z,3.60
2019-04-04T00:53:52.206Z,3.70
2019-04-04T00:56:39.806Z,3.60
2019-04-04T00:59:27.648Z,3.70
2019-04-04T01:02:15.589Z,3.70
2019-04-04T01:05:04.212Z,3.70
2019-04-04T01:07:52.130Z,3.70
2019-04-04T01:10:40.047Z,3.80
2019-04-04T01:13:27.996Z,4.00
2019-04-04T01:16:15.650Z,4.00
2019-04-04T01:19:03.383Z,3.90
2019-04-04T01:21:53.050Z,3.80
2019-04-04T01:24:40.867Z,3.70
2019-04-04T01:27:28.713Z,3.70
2019-04-04T01:30:17.290Z,3.80
2019-04-04T01:33:04.955Z,3.80
2019-04-04T01:35:53.951Z,3.80
2019-04-04T01:38:42.665Z,3.80
2019-04-04T01:41:30.500Z,3.80
2019-04-04T01:44:18.179Z,3.80
2019-04-04T01:47:06.218Z,3.80
2019-04-04T01:49:54.205Z,3.90
2019-04-04T01:52:42.069Z,4.00
2019-04-04T01:55:29.837Z,4.00
2019-04-04T01:58:17.894Z,4.00
2019-04-04T02:01:05.981Z,3.90
2019-04-04T02:03:54.226Z,4.00
2019-04-04T02:06:42.280Z,6.50
2019-04-04T02:09:32.042Z,3.90
2019-04-04T02:12:19.577Z,3.90
2019-04-04T02:15:13.954Z,3.90
2019-04-04T02:18:00.382Z,4.00
2019-04-04T02:20:47.886Z,4.10
2019-04-04T02:23:35.831Z,4.00
2019-04-04T02:26:23.681Z,4.00
2019-04-04T02:29:11.751Z,3.90
2019-04-04T02:32:13.058Z,3.80
2019-04-04T02:35:00.869Z,3.90
2019-04-04T02:37:48.764Z,4.00
2019-04-04T02:40:40.781Z,4.00
2019-04-04T02:43:28.283Z,4.10
2019-04-04T02:46:15.230Z,4.20
2019-04-04T02:49:03.246Z,4.20
2019-04-04T02:51:50.949Z,4.30
2019-04-04T02:54:38.902Z,4.30
2019-04-04T02:57:26.658Z,4.30
2019-04-04T03:00:14.798Z,4.40
2019-04-04T03:03:02.519Z,4.50
2019-04-04T03:05:52.027Z,4.40
2019-04-04T03:08:39.693Z,4.30
2019-04-04T03:11:27.517Z,4.30
2019-04-04T03:14:15.424Z,4.30
2019-04-04T03:17:03.158Z,4.40
2019-04-04T03:19:51.156Z,4.40
2019-04-04T03:22:38.802Z,4.30
2019-04-04T03:25:26.631Z,4.40
2019-04-04T03:28:14.429Z,4.40
2019-04-04T03:31:03.619Z,4.40
2019-04-04T03:33:51.738Z,4.40
2019-04-04T03:36:39.697Z,4.50
2019-04-04T03:39:27.228Z,4.50
2019-04-04T03:42:14.837Z,4.50
2019-04-04T03:45:03.020Z,4.60
2019-04-04T03:47:50.898Z,4.70
2019-04-04T03:50:38.666Z,4.70
2019-04-04T03:53:26.671Z,4.70
2019-04-04T03:56:14.582Z,4.70
2019-04-04T03:59:02.433Z,2.90
2019-04-04T04:01:50.374Z,4.60
2019-04-04T04:04:38.009Z,4.60
2019-04-04T04:07:25.679Z,4.70
2019-04-04T04:10:13.496Z,4.70
2019-04-04T04:13:01.173Z,4.60
2019-04-04T04:15:48.898Z,4.60
2019-04-04T04:18:36.892Z,4.60
2019-04-04T04:21:24.609Z,4.50
2019-04-04T04:24:12.287Z,4.50
2019-04-04T04:27:00.211Z,4.40
2019-04-04T04:29:48.268Z,4.50
2019-04-04T04:32:37.410Z,4.50
2019-04-04T04:35:25.497Z,4.60
2019-04-04T04:38:13.394Z,4.60
2019-04-04T04:41:01.125Z,4.60
2019-04-04T04:43:49.153Z,4.60
2019-04-04T04:46:37.076Z,4.60
2019-04-04T04:49:25.002Z,4.60
2019-04-04T04:52:15.066Z,4.60
2019-04-04T04:55:02.245Z,4.70
2019-04-04T04:57:49.895Z,4.70
2019-04-04T05:00:37.725Z,4.70
2019-04-04T05:03:25.278Z,4.60
2019-04-04T05:06:13.281Z,4.70
2019-04-04T05:09:00.962Z,4.70
2019-04-04T05:11:50.330Z,4.70
2019-04-04T05:14:38.620Z,4.70
2019-04-04T05:17:27.145Z,4.70
2019-04-04T05:20:15.097Z,4.80
2019-04-04T05:23:02.960Z,4.80
2019-04-04T05:25:54.115Z,4.90
2019-04-04T05:28:42.098Z,4.80
2019-04-04T05:31:30.416Z,4.80
2019-04-04T05:34:18.033Z,4.90
2019-04-04T05:37:07.380Z,5.00
2019-04-04T05:39:56.026Z,5.00
2019-04-04T05:42:43.772Z,5.10
2019-04-04T05:45:31.591Z,5.10
2019-04-04T05:48:19.401Z,5.10
2019-04-04T05:51:07.203Z,5.20
2019-04-04T05:53:55.637Z,5.20
2019-04-04T05:56:44.695Z,5.20
2019-04-04T05:59:32.969Z,5.30
2019-04-04T06:02:20.795Z,5.30
2019-04-04T06:05:08.642Z,5.30
2019-04-04T06:07:56.493Z,5.20
2019-04-04T06:10:44.096Z,5.30
2019-04-04T06:13:31.873Z,5.40
2019-04-04T06:16:19.527Z,5.30
2019-04-04T06:19:07.529Z,5.40
2019-04-04T06:21:55.168Z,5.40
2019-04-04T06:24:43.088Z,5.40
2019-04-04T06:27:30.961Z,5.50
2019-04-04T06:30:20.160Z,5.40
2019-04-04T06:33:08.689Z,5.40
2019-04-04T06:35:56.664Z,5.40
2019-04-04T06:38:44.346Z,5.40
2019-04-04T06:41:32.399Z,5.40
2019-04-04T06:44:20.577Z,5.40
2019-04-04T06:47:08.218Z,5.40
2019-04-04T06:49:56.197Z,5.40
2019-04-04T06:52:44.595Z,5.40
2019-04-04T06:55:32.262Z,5.40
2019-04-04T06:58:20.139Z,5.40
2019-04-04T07:01:10.916Z,5.40
2019-04-04T07:03:59.494Z,5.40
2019-04-04T07:06:47.839Z,5.40
2019-04-04T07:09:37.221Z,5.40
2019-04-04T07:12:28.373Z,5.40
2019-04-04T07:15:16.045Z,5.50
2019-04-04T07:18:04.316Z,5.40
2019-04-04T07:20:52.003Z,5.50
2019-04-04T07:23:42.093Z,5.40
2019-04-04T07:26:29.935Z,5.40
2019-04-04T07:29:17.986Z,5.60
2019-04-04T07:32:07.194Z,5.60
2019-04-04T07:34:55.947Z,5.60
2019-04-04T07:37:43.469Z,5.70
2019-04-04T07:40:31.437Z,5.70
2019-04-04T07:43:19.961Z,5.80
2019-04-04T07:46:16.268Z,5.80
2019-04-04T07:48:57.923Z,5.80
2019-04-04T07:51:45.820Z,5.80
2019-04-04T07:54:33.858Z,5.80
2019-04-04T07:57:21.860Z,5.90
2019-04-04T08:00:09.934Z,5.90
2019-04-04T08:02:57.741Z,5.90
2019-04-04T08:05:45.464Z,5.90
2019-04-04T08:08:33.333Z,6.00
2019-04-04T08:11:21.061Z,6.00
2019-04-04T08:14:08.854Z,6.00
2019-04-04T08:16:56.597Z,6.00
2019-04-04T08:19:44.681Z,6.00
2019-04-04T08:22:32.544Z,6.10
2019-04-04T08:25:20.138Z,6.10
2019-04-04T08:28:07.917Z,6.20
2019-04-04T08:30:55.844Z,6.30
2019-04-04T08:33:44.247Z,6.50
2019-04-04T08:36:32.000Z,6.50
2019-04-04T08:39:19.956Z,6.50
2019-04-04T08:42:07.865Z,6.40
2019-04-04T08:44:55.425Z,6.40
2019-04-04T08:47:43.046Z,6.50
2019-04-04T08:50:30.925Z,6.50
2019-04-04T08:53:18.605Z,6.50
2019-04-04T08:56:06.167Z,6.60
2019-04-04T09:01:41.258Z,6.50
2019-04-04T09:04:29.438Z,6.60
2019-04-04T09:07:17.095Z,6.50
2019-04-04T09:10:07.762Z,6.50
2019-04-04T09:12:55.617Z,6.50
2019-04-04T09:15:43.549Z,6.50
2019-04-04T09:18:31.703Z,6.70
2019-04-04T09:21:19.365Z,6.80
2019-04-04T09:24:06.964Z,6.90
2019-04-04T09:26:54.814Z,7.10
2019-04-04T09:29:42.568Z,7.20
2019-04-04T09:32:30.358Z,7.40
2019-04-04T09:35:18.190Z,7.40
2019-04-04T09:38:06.100Z,7.30
2019-04-04T09:40:53.600Z,7.20
2019-04-04T09:43:41.346Z,7.10
2019-04-04T09:46:29.678Z,6.80
2019-04-04T09:49:17.835Z,6.70
2019-04-04T09:52:05.965Z,6.60
2019-04-04T09:54:53.890Z,6.60
2019-04-04T09:57:43.777Z,6.50
2019-04-04T10:00:31.577Z,6.50
2019-04-04T10:03:19.738Z,6.50
2019-04-04T10:06:07.744Z,6.50
2019-04-04T10:08:55.397Z,6.90
2019-04-04T10:11:43.246Z,6.90
2019-04-04T10:14:32.656Z,6.90
2019-04-04T10:17:22.730Z,6.80
2019-04-04T10:20:12.565Z,6.80
2019-04-04T10:23:00.466Z,6.80
2019-04-04T10:25:48.576Z,6.90
2019-04-04T10:28:36.347Z,6.80
2019-04-04T10:31:23.834Z,6.90
2019-04-04T10:34:11.509Z,6.80
2019-04-04T10:36:59.170Z,6.80
2019-04-04T10:39:47.906Z,6.80
2019-04-04T10:42:35.825Z,6.80
2019-04-04T10:45:23.642Z,6.80
2019-04-04T10:48:11.536Z,6.80
2019-04-04T10:50:59.743Z,6.80
2019-04-04T10:53:47.485Z,6.70
2019-04-04T10:59:22.665Z,6.40
2019-04-04T11:02:10.629Z,6.50
2019-04-04T11:04:58.537Z,6.50
2019-04-04T11:07:46.414Z,6.60
2019-04-04T11:10:34.250Z,6.60
2019-04-04T11:13:33.013Z,6.70
2019-04-04T11:16:11.445Z,7.10
2019-04-04T11:18:59.452Z,7.20
2019-04-04T11:21:47.330Z,7.20
2019-04-04T11:24:35.174Z,7.30
2019-04-04T11:27:22.983Z,7.30
2019-04-04T11:30:10.955Z,7.30
2019-04-04T11:32:58.649Z,7.30
2019-04-04T11:35:46.590Z,7.10
2019-04-04T11:38:34.207Z,6.90
2019-04-04T11:41:22.208Z,6.80
2019-04-04T11:44:09.871Z,6.80
2019-04-04T11:46:57.823Z,6.70
2019-04-04T11:49:45.718Z,6.60
2019-04-04T11:52:33.751Z,6.70
2019-04-04T11:55:21.697Z,6.90
2019-04-04T11:58:09.822Z,7.20
2019-04-04T12:00:59.169Z,7.20
2019-04-04T12:03:47.175Z,7.20
2019-04-04T12:06:35.118Z,7.10
2019-04-04T12:09:31.810Z,7.10
2019-04-04T12:12:23.630Z,7.10
2019-04-04T12:15:12.107Z,6.90
2019-04-04T12:18:02.325Z,6.90
2019-04-04T12:20:50.129Z,6.80
2019-04-04T12:23:37.715Z,6.80
2019-04-04T12:26:25.622Z,6.80
2019-04-04T12:29:13.368Z,6.50
2019-04-04T12:32:01.233Z,6.50
2019-04-04T12:34:49.010Z,6.50
2019-04-04T12:37:37.009Z,6.50
2019-04-04T12:40:25.059Z,6.40
2019-04-04T12:43:17.194Z,6.40
2019-04-04T12:46:05.270Z,6.40
2019-04-04T12:48:52.765Z,6.30
2019-04-04T12:51:40.413Z,6.20
2019-04-04T12:54:28.162Z,6.20
2019-04-04T12:57:15.942Z,6.30
2019-04-04T13:00:06.285Z,6.40
2019-04-04T13:02:53.904Z,6.30
2019-04-04T13:05:42.074Z,6.20
2019-04-04T13:08:30.648Z,6.10
2019-04-04T13:11:18.708Z,6.00
2019-04-04T13:14:06.692Z,6.00
2019-04-04T13:16:54.358Z,6.00
2019-04-04T13:19:42.405Z,6.10
2019-04-04T13:22:30.345Z,6.00
2019-04-04T13:25:18.067Z,5.90
2019-04-04T13:28:05.750Z,5.90
2019-04-04T13:30:53.788Z,5.80
2019-04-04T13:33:41.338Z,5.70
2019-04-04T13:36:29.230Z,5.70
2019-04-04T13:39:16.884Z,5.70
2019-04-04T13:42:05.566Z,5.90
2019-04-04T13:44:53.568Z,6.10
2019-04-04T13:47:41.187Z,6.30
2019-04-04T13:50:29.123Z,6.60
2019-04-04T13:53:17.041Z,6.90
2019-04-04T13:56:04.825Z,7.40
2019-04-04T13:58:53.161Z,8.10
2019-04-04T14:01:42.793Z,8.60
2019-04-04T14:04:30.365Z,8.90
2019-04-04T14:07:17.950Z,9.10
2019-04-04T14:10:07.453Z,9.30
2019-04-04T14:12:55.108Z,9.50
2019-04-04T14:15:42.881Z,9.60
2019-04-04T14:18:39.532Z,9.60
2019-04-04T14:21:20.094Z,9.30
2019-04-04T14:24:13.814Z,8.90
2019-04-04T14:26:58.109Z,8.40
2019-04-04T14:29:46.090Z,8.20
2019-04-04T14:32:34.112Z,8.00
2019-04-04T14:35:21.960Z,7.70
2019-04-04T14:38:09.580Z,7.50
2019-04-04T14:41:10.257Z,7.40
2019-04-04T14:43:48.282Z,7.30
2019-04-04T14:46:37.105Z,7.30
2019-04-04T14:49:25.878Z,7.20
2019-04-04T14:52:13.816Z,7.00
2019-04-04T14:55:01.620Z,6.90
2019-04-04T14:57:49.510Z,6.80
2019-04-04T15:00:37.412Z,6.80
2019-04-04T15:03:25.322Z,6.80
2019-04-04T15:06:13.048Z,6.90
2019-04-04T15:09:00.668Z,6.90
2019-04-04T15:11:48.412Z,6.90
2019-04-04T15:14:35.889Z,7.00
2019-04-04T15:17:23.945Z,6.90
2019-04-04T15:20:12.171Z,7.00
2019-04-04T15:23:00.177Z,7.00
2019-04-04T15:25:49.336Z,7.10
2019-04-04T15:28:37.543Z,7.10
2019-04-04T15:31:25.534Z,7.20
2019-04-04T15:37:02.753Z,7.10
2019-04-04T15:39:50.764Z,7.10
2019-04-04T15:42:38.829Z,7.20
2019-04-04T15:45:29.290Z,7.20
2019-04-04T15:48:17.314Z,7.30
2019-04-04T15:51:05.106Z,7.30
2019-04-04T15:53:52.885Z,7.30
2019-04-04T15:56:43.534Z,7.20
2019-04-04T15:59:32.269Z,7.10
2019-04-04T16:02:20.514Z,7.30
2019-04-04T16:05:08.504Z,7.30
2019-04-04T16:07:58.609Z,7.50
2019-04-04T16:10:46.657Z,7.60
2019-04-04T16:13:34.510Z,7.70
2019-04-04T16:16:23.698Z,7.80
2019-04-04T16:19:11.508Z,7.80
2019-04-04T16:21:59.621Z,7.80
2019-04-04T16:24:47.542Z,7.30
2019-04-04T16:27:35.565Z,7.30
2019-04-04T16:30:23.080Z,6.80
2019-04-04T16:33:10.940Z,6.80
2019-04-04T16:35:58.811Z,6.70
2019-04-04T16:38:46.670Z,6.70
2019-04-04T16:41:34.577Z,6.80
2019-04-04T16:44:22.222Z,6.70
2019-04-04T16:47:17.259Z,6.60
2019-04-04T16:50:06.797Z,6.60
2019-04-04T16:52:54.366Z,6.50
2019-04-04T16:55:42.277Z,6.30
2019-04-04T16:58:29.909Z,6.30
2019-04-04T17:01:18.096Z,6.30
2019-04-04T17:04:05.622Z,6.20
2019-04-04T17:06:54.859Z,6.10
2019-04-04T17:09:42.933Z,5.90
2019-04-04T17:12:30.820Z,5.80
2019-04-04T17:15:20.481Z,5.80
2019-04-04T17:18:08.036Z,5.70
2019-04-04T17:20:55.813Z,5.70
2019-04-04T17:23:43.376Z,5.60
2019-04-04T17:26:31.249Z,5.60
2019-04-04T17:29:19.269Z,5.60
2019-04-04T17:32:07.509Z,5.50
2019-04-04T17:34:55.840Z,5.50
2019-04-04T17:37:43.825Z,5.50
2019-04-04T17:40:31.681Z,5.50
2019-04-04T17:43:19.807Z,5.50
2019-04-04T17:46:08.064Z,5.40
2019-04-04T17:48:55.584Z,5.50
2019-04-04T17:51:44.389Z,5.40
2019-04-04T17:54:32.404Z,5.40
2019-04-04T18:00:09.851Z,5.30
2019-04-04T18:02:57.696Z,5.30
2019-04-04T18:05:45.624Z,5.30
2019-04-04T18:08:33.531Z,5.20
2019-04-04T18:11:21.556Z,5.20
2019-04-04T18:14:09.208Z,5.20
2019-04-04T18:16:56.956Z,5.20
2019-04-04T18:19:44.917Z,5.20
2019-04-04T18:22:32.879Z,5.20
2019-04-04T18:28:08.223Z,3.10
2019-04-04T18:30:55.862Z,5.30
2019-04-04T18:33:43.989Z,5.20
2019-04-04T18:36:32.129Z,5.20
2019-04-04T18:39:19.826Z,5.20
2019-04-04T18:42:07.467Z,5.20
2019-04-04T18:44:55.553Z,5.20
2019-04-04T18:47:43.163Z,5.20
2019-04-04T18:50:30.886Z,5.20
2019-04-04T18:53:18.578Z,5.20
2019-04-04T18:56:06.649Z,5.20
2019-04-04T18:58:56.036Z,5.30
2019-04-04T19:01:43.594Z,5.20
2019-04-04T19:07:19.155Z,5.20
2019-04-04T19:10:08.796Z,5.30
2019-04-04T19:13:05.284Z,5.30
2019-04-04T19:15:46.662Z,5.30
2019-04-04T19:18:34.654Z,5.30
2019-04-04T19:21:22.302Z,5.30
2019-04-04T19:24:10.055Z,5.30
2019-04-04T19:26:57.664Z,5.30
2019-04-04T19:29:45.769Z,5.20
2019-04-04T19:32:33.645Z,5.30
2019-04-04T19:35:21.273Z,5.20
2019-04-04T19:38:08.937Z,5.20
2019-04-04T19:40:56.882Z,5.20
2019-04-04T19:43:44.606Z,5.20
2019-04-04T19:46:37.241Z,5.30
2019-04-04T19:49:22.262Z,5.30
2019-04-04T19:52:09.922Z,5.20
2019-04-04T19:54:58.174Z,5.20
2019-04-04T19:57:45.645Z,5.30
2019-04-04T20:00:33.661Z,5.30
2019-04-04T20:03:21.337Z,5.30
2019-04-04T20:06:08.941Z,5.40
2019-04-04T20:08:56.733Z,5.40
2019-04-04T20:11:44.508Z,5.40
2019-04-04T20:14:32.182Z,5.40
2019-04-04T20:17:20.201Z,5.40
2019-04-04T20:20:08.996Z,5.40
2019-04-04T20:22:57.117Z,5.30
2019-04-04T20:25:45.105Z,5.30
2019-04-04T20:28:32.934Z,5.30
2019-04-04T20:31:20.622Z,5.30
2019-04-04T20:34:08.611Z,5.30
2019-04-04T20:36:56.629Z,5.30
2019-04-04T20:39:44.593Z,5.30
2019-04-04T20:42:32.187Z,5.30
2019-04-04T20:45:20.101Z,5.20
2019-04-04T20:48:08.169Z,5.20
2019-04-04T20:50:55.913Z,5.10
2019-04-04T20:53:43.770Z,5.20
2019-04-04T20:56:31.457Z,5.10
2019-04-04T20:59:19.499Z,5.20
2019-04-04T21:02:07.329Z,5.20
2019-04-04T21:04:55.042Z,5.20
2019-04-04T21:07:43.034Z,5.20
2019-04-04T21:10:30.868Z,5.30
2019-04-04T21:13:19.660Z,5.30
2019-04-04T21:16:08.345Z,5.20
2019-04-04T21:18:56.085Z,5.20
2019-04-04T21:21:43.828Z,5.20
2019-04-04T21:24:31.669Z,5.30
2019-04-04T21:27:19.267Z,5.40
2019-04-04T21:30:07.655Z,5.30
2019-04-04T21:32:56.438Z,5.30
2019-04-04T21:35:44.283Z,5.30
2019-04-04T21:38:32.226Z,5.30
2019-04-04T21:41:20.001Z,5.20
2019-04-04T21:44:09.190Z,5.20
2019-04-04T21:46:57.642Z,5.20
2019-04-04T21:49:45.273Z,5.20
2019-04-04T21:52:33.322Z,5.20
2019-04-04T21:55:21.045Z,5.20
2019-04-04T21:58:09.005Z,5.00
2019-04-04T22:00:57.610Z,5.00
2019-04-04T22:03:45.305Z,5.00
2019-04-04T22:06:33.310Z,5.00
2019-04-04T22:09:21.129Z,5.00
2019-04-04T22:12:08.658Z,5.20
2019-04-04T22:14:56.636Z,5.20
2019-04-04T22:17:44.310Z,5.20
2019-04-04T22:20:32.419Z,5.20
2019-04-04T22:23:20.077Z,5.20
2019-04-04T22:26:07.637Z,5.20
2019-04-04T22:28:55.423Z,5.00
2019-04-04T22:31:43.485Z,5.00
2019-04-04T22:34:31.086Z,5.00
2019-04-04T22:37:18.882Z,5.00
2019-04-04T22:40:07.499Z,5.00
2019-04-04T22:42:55.160Z,5.00
2019-04-04T22:45:42.717Z,5.10
2019-04-04T22:48:30.653Z,5.10
2019-04-04T22:51:18.576Z,5.10
2019-04-04T22:54:06.521Z,5.00
2019-04-04T22:56:54.106Z,5.00
2019-04-04T22:59:42.037Z,5.00
2019-04-04T23:02:29.928Z,5.10
2019-04-04T23:05:17.569Z,5.00
2019-04-04T23:08:07.467Z,5.00
2019-04-04T23:10:54.709Z,4.90
2019-04-04T23:13:42.402Z,4.90
2019-04-04T23:16:30.217Z,4.90
2019-04-04T23:19:17.998Z,4.90
2019-04-04T23:22:05.903Z,4.80
2019-04-04T23:24:53.733Z,4.80
2019-04-04T23:27:41.400Z,4.70
2019-04-04T23:30:29.201Z,4.70
2019-04-04T23:33:17.154Z,4.70
2019-04-04T23:36:05.014Z,4.80
2019-04-04T23:38:52.710Z,4.70
2019-04-04T23:41:40.265Z,4.70
2019-04-04T23:44:28.300Z,4.70
2019-04-04T23:47:16.405Z,4.70
2019-04-04T23:50:05.689Z,4.60
2019-04-04T23:52:53.302Z,4.60
2019-04-04T23:55:41.111Z,4.50
2019-04-04T23:58:29.082Z,4.40
